createdAt,value
2022-12-19T00:00:10.620Z,9.80
2022-12-19T00:02:42.314Z,9.90
2022-12-19T00:05:11.562Z,9.80
2022-12-19T00:07:39.335Z,9.90
2022-12-19T00:10:07.765Z,9.90
2022-12-19T00:12:35.229Z,10.00
2022-12-19T00:15:02.562Z,10.00
2022-12-19T00:17:29.988Z,10.10
2022-12-19T00:19:57.339Z,10.10
2022-12-19T00:22:24.922Z,10.10
2022-12-19T00:24:52.370Z,10.10
2022-12-19T00:27:19.708Z,10.10
2022-12-19T00:29:47.529Z,10.10
2022-12-19T00:32:15.358Z,10.20
2022-12-19T00:34:44.020Z,10.20
2022-12-19T00:37:11.916Z,10.10
2022-12-19T00:39:39.287Z,10.20
2022-12-19T00:42:06.604Z,10.20
2022-12-19T00:44:34.057Z,10.30
2022-12-19T00:47:01.469Z,10.30
2022-12-19T00:49:28.851Z,10.30
2022-12-19T00:51:57.958Z,10.30
2022-12-19T00:54:25.721Z,10.30
2022-12-19T00:56:53.426Z,10.30
2022-12-19T00:59:26.901Z,10.50
2022-12-19T01:01:54.618Z,10.40
2022-12-19T01:04:30.323Z,10.50
2022-12-19T01:07:02.301Z,10.40
2022-12-19T01:09:30.874Z,10.40
2022-12-19T01:12:16.979Z,10.50
2022-12-19T01:14:44.499Z,10.60
2022-12-19T01:17:12.093Z,10.70
2022-12-19T01:19:43.994Z,10.70
2022-12-19T01:22:13.196Z,10.70
2022-12-19T01:24:40.767Z,10.70
2022-12-19T01:27:08.394Z,10.70
2022-12-19T01:29:36.747Z,10.80
2022-12-19T01:32:21.288Z,10.80
2022-12-19T01:34:48.715Z,10.80
2022-12-19T01:37:16.175Z,10.90
2022-12-19T01:39:44.856Z,10.90
2022-12-19T01:42:23.118Z,11.00
2022-12-19T01:45:13.373Z,11.00
2022-12-19T01:47:55.407Z,11.00
2022-12-19T01:50:33.175Z,11.10
2022-12-19T01:53:01.642Z,11.10
2022-12-19T01:55:29.171Z,11.10
2022-12-19T01:57:59.023Z,11.20
2022-12-19T02:00:26.400Z,11.20
2022-12-19T02:03:07.565Z,11.20
2022-12-19T02:05:40.120Z,11.30
2022-12-19T02:08:07.987Z,11.30
2022-12-19T02:10:35.387Z,11.30
2022-12-19T02:13:03.005Z,11.30
2022-12-19T02:15:40.403Z,11.30
2022-12-19T02:18:31.311Z,11.30
2022-12-19T02:21:05.805Z,11.40
2022-12-19T02:24:10.813Z,11.50
2022-12-19T02:26:55.933Z,11.40
2022-12-19T02:29:41.201Z,11.50
2022-12-19T02:32:19.160Z,11.60
2022-12-19T02:35:13.847Z,11.60
2022-12-19T02:38:10.503Z,11.60
2022-12-19T02:40:48.592Z,11.60
2022-12-19T02:43:23.804Z,11.60
2022-12-19T02:45:52.349Z,11.70
2022-12-19T02:48:20.345Z,11.70
2022-12-19T02:50:50.518Z,11.70
2022-12-19T02:53:18.220Z,11.70
2022-12-19T02:56:16.169Z,11.70
2022-12-19T02:58:59.769Z,11.70
2022-12-19T03:01:34.698Z,11.70
2022-12-19T03:04:36.157Z,11.70
2022-12-19T03:07:12.289Z,11.70
2022-12-19T03:09:58.773Z,11.70
2022-12-19T03:12:32.233Z,11.80
2022-12-19T03:15:01.441Z,11.80
2022-12-19T03:17:29.312Z,11.70
2022-12-19T03:19:57.348Z,11.70
2022-12-19T03:22:24.869Z,11.80
2022-12-19T03:24:52.245Z,11.70
2022-12-19T03:27:26.161Z,11.70
2022-12-19T03:30:04.422Z,11.80
2022-12-19T03:32:33.402Z,11.80
2022-12-19T03:35:05.901Z,11.80
2022-12-19T03:37:37.356Z,11.70
2022-12-19T03:40:17.381Z,11.80
2022-12-19T03:43:07.012Z,11.80
2022-12-19T03:45:49.479Z,11.80
2022-12-19T03:48:47.421Z,11.80
2022-12-19T03:51:33.575Z,11.90
2022-12-19T03:54:24.239Z,11.90
2022-12-19T03:56:57.756Z,11.80
2022-12-19T03:59:34.424Z,11.80
2022-12-19T04:02:03.946Z,11.80
2022-12-19T04:04:35.899Z,11.80
2022-12-19T04:07:05.429Z,11.80
2022-12-19T04:09:34.095Z,11.80
2022-12-19T04:12:06.133Z,11.80
2022-12-19T04:14:37.035Z,11.80
2022-12-19T04:17:31.592Z,11.90
2022-12-19T04:20:12.301Z,11.90
2022-12-19T04:22:48.195Z,12.00
2022-12-19T04:25:23.955Z,11.90
2022-12-19T04:27:59.645Z,11.90
2022-12-19T04:30:27.433Z,11.80
2022-12-19T04:32:55.767Z,11.90
2022-12-19T04:35:23.178Z,11.90
2022-12-19T04:37:51.894Z,11.90
2022-12-19T04:40:19.338Z,11.90
2022-12-19T04:42:46.645Z,11.90
2022-12-19T04:45:14.015Z,11.90
2022-12-19T04:47:41.359Z,11.80
2022-12-19T04:50:09.668Z,11.90
2022-12-19T04:52:37.103Z,11.80
2022-12-19T04:55:04.716Z,11.90
2022-12-19T04:57:32.509Z,11.80
2022-12-19T04:59:59.837Z,11.90
2022-12-19T05:02:27.356Z,11.80
2022-12-19T05:04:55.076Z,11.90
2022-12-19T05:07:22.465Z,11.90
2022-12-19T05:09:49.838Z,11.90
2022-12-19T05:12:17.190Z,12.00
2022-12-19T05:14:44.765Z,12.00
2022-12-19T05:17:12.152Z,12.00
2022-12-19T05:19:39.479Z,12.00
2022-12-19T05:22:06.814Z,12.00
2022-12-19T05:24:34.163Z,12.00
2022-12-19T05:27:01.523Z,12.00
2022-12-19T05:29:28.920Z,12.00
2022-12-19T05:31:56.422Z,12.00
2022-12-19T05:34:24.802Z,12.00
2022-12-19T05:36:52.167Z,12.00
2022-12-19T05:39:19.522Z,12.00
2022-12-19T05:41:49.170Z,12.00
2022-12-19T05:44:17.320Z,12.10
2022-12-19T05:46:45.142Z,12.10
2022-12-19T05:49:12.664Z,12.10
2022-12-19T05:51:40.415Z,12.10
2022-12-19T05:54:07.767Z,12.10
2022-12-19T05:56:35.090Z,12.00
2022-12-19T05:59:02.412Z,12.10
2022-12-19T06:01:30.326Z,12.10
2022-12-19T06:03:57.794Z,12.10
2022-12-19T06:06:26.757Z,12.10
2022-12-19T06:08:55.787Z,12.10
2022-12-19T06:11:24.568Z,12.10
2022-12-19T06:13:52.207Z,12.10
2022-12-19T06:16:21.575Z,12.10
2022-12-19T06:18:49.253Z,12.10
2022-12-19T06:21:21.991Z,12.10
2022-12-19T06:23:49.687Z,12.10
2022-12-19T06:26:20.420Z,12.10
2022-12-19T06:28:51.852Z,12.10
2022-12-19T06:31:20.662Z,12.10
2022-12-19T06:33:48.512Z,12.10
2022-12-19T06:36:20.033Z,12.10
2022-12-19T06:38:48.337Z,12.10
2022-12-19T06:41:35.285Z,12.20
2022-12-19T06:44:05.032Z,12.20
2022-12-19T06:46:32.679Z,12.20
2022-12-19T06:49:00.497Z,12.20
2022-12-19T06:51:28.135Z,12.20
2022-12-19T06:53:55.592Z,12.20
2022-12-19T06:56:23.477Z,12.20
2022-12-19T06:58:51.458Z,12.30
2022-12-19T07:01:48.885Z,12.30
2022-12-19T07:04:21.453Z,12.30
2022-12-19T07:06:49.408Z,12.30
2022-12-19T07:09:18.014Z,12.40
2022-12-19T07:11:45.389Z,12.40
2022-12-19T07:14:12.727Z,12.40
2022-12-19T07:16:41.266Z,12.30
2022-12-19T07:19:09.257Z,12.30
2022-12-19T07:21:39.057Z,12.30
2022-12-19T07:24:07.920Z,12.30
2022-12-19T07:26:36.720Z,12.30
2022-12-19T07:29:05.091Z,12.30
2022-12-19T07:31:32.818Z,12.40
2022-12-19T07:34:00.407Z,12.40
2022-12-19T07:36:28.098Z,12.40
2022-12-19T07:38:55.444Z,12.50
2022-12-19T07:41:22.847Z,12.50
2022-12-19T07:43:50.258Z,12.60
2022-12-19T07:46:17.655Z,12.60
2022-12-19T07:48:45.029Z,12.60
2022-12-19T07:51:12.339Z,12.60
2022-12-19T07:53:39.715Z,12.60
2022-12-19T07:56:07.665Z,12.60
2022-12-19T07:58:35.288Z,12.60
2022-12-19T08:01:02.733Z,12.50
2022-12-19T08:03:33.528Z,12.50
2022-12-19T08:06:02.544Z,12.50
2022-12-19T08:08:30.459Z,12.50
2022-12-19T08:11:07.917Z,12.50
2022-12-19T08:13:39.664Z,12.50
2022-12-19T08:16:10.689Z,12.50
2022-12-19T08:18:38.196Z,12.50
2022-12-19T08:21:08.496Z,12.50
2022-12-19T08:23:35.947Z,12.40
2022-12-19T08:26:06.181Z,12.40
2022-12-19T08:28:35.514Z,12.40
2022-12-19T08:31:10.875Z,12.50
2022-12-19T08:33:38.769Z,12.50
2022-12-19T08:36:11.590Z,12.50
2022-12-19T08:38:42.587Z,12.40
2022-12-19T08:41:10.152Z,12.50
2022-12-19T08:43:38.400Z,12.40
2022-12-19T08:46:06.389Z,12.40
2022-12-19T08:48:34.413Z,12.40
2022-12-19T08:51:04.560Z,12.50
2022-12-19T08:53:35.181Z,12.60
2022-12-19T08:56:08.668Z,12.60
2022-12-19T08:58:36.112Z,12.50
2022-12-19T09:01:06.418Z,12.50
2022-12-19T09:03:56.624Z,12.50
2022-12-19T09:06:21.305Z,12.50
2022-12-19T09:08:49.363Z,12.50
2022-12-19T09:11:19.999Z,12.50
2022-12-19T09:13:48.220Z,12.50
2022-12-19T09:16:18.731Z,12.50
2022-12-19T09:18:49.061Z,12.60
2022-12-19T09:21:20.871Z,12.50
2022-12-19T09:23:53.779Z,12.50
2022-12-19T09:26:23.630Z,12.50
2022-12-19T09:28:51.587Z,12.50
2022-12-19T09:31:21.537Z,12.50
2022-12-19T09:33:49.904Z,12.60
2022-12-19T09:36:20.380Z,12.60
2022-12-19T09:38:48.442Z,12.50
2022-12-19T09:41:33.665Z,12.60
2022-12-19T09:44:19.002Z,12.50
2022-12-19T09:46:46.363Z,12.50
2022-12-19T09:49:29.860Z,12.50
2022-12-19T09:52:03.553Z,12.50
2022-12-19T09:54:43.490Z,12.50
2022-12-19T09:57:34.427Z,12.50
2022-12-19T10:00:06.294Z,12.50
2022-12-19T10:02:55.078Z,12.50
2022-12-19T10:06:06.420Z,12.40
2022-12-19T10:08:25.322Z,12.40
2022-12-19T10:12:36.579Z,12.30
2022-12-19T10:14:16.631Z,12.20
2022-12-19T10:17:28.608Z,12.20
2022-12-19T10:19:59.059Z,12.30
2022-12-19T10:22:29.427Z,12.30
2022-12-19T10:25:20.373Z,12.30
2022-12-19T10:28:06.245Z,12.30
2022-12-19T10:30:40.616Z,12.20
2022-12-19T10:33:20.527Z,12.30
2022-12-19T10:35:55.403Z,12.30
2022-12-19T10:38:32.491Z,12.30
2022-12-19T10:41:16.578Z,12.30
2022-12-19T10:43:53.050Z,12.30
2022-12-19T10:46:46.189Z,12.30
2022-12-19T10:49:22.853Z,12.30
2022-12-19T10:51:55.898Z,12.30
2022-12-19T10:54:30.700Z,12.30
2022-12-19T10:57:19.958Z,12.20
2022-12-19T11:00:03.970Z,12.20
2022-12-19T11:02:53.688Z,12.20
2022-12-19T11:05:50.714Z,12.10
2022-12-19T11:08:36.745Z,12.00
2022-12-19T11:12:33.562Z,12.00
2022-12-19T11:19:19.774Z,12.00
2022-12-19T11:21:48.432Z,11.90
2022-12-19T11:29:18.089Z,11.90
2022-12-19T11:30:39.550Z,11.90
2022-12-19T11:30:44.126Z,11.90
2022-12-19T11:30:47.106Z,11.90
2022-12-19T11:34:22.635Z,11.90
2022-12-19T11:37:21.741Z,11.90
2022-12-19T11:39:57.461Z,12.00
2022-12-19T11:42:33.206Z,12.00
2022-12-19T11:45:28.046Z,12.00
2022-12-19T11:48:04.904Z,12.00
2022-12-19T11:50:36.211Z,12.00
2022-12-19T11:53:18.358Z,12.00
2022-12-19T11:55:52.316Z,12.00
2022-12-19T11:58:19.887Z,12.00
2022-12-19T12:00:56.856Z,12.00
2022-12-19T12:03:36.110Z,12.00
2022-12-19T12:06:13.222Z,12.00
2022-12-19T12:12:53.318Z,12.10
2022-12-19T12:18:39.816Z,12.10
2022-12-19T12:24:37.932Z,12.20
2022-12-19T12:25:45.327Z,12.10
2022-12-19T12:30:10.067Z,12.10
2022-12-19T12:31:16.207Z,12.20
2022-12-19T12:31:47.729Z,12.20
2022-12-19T12:32:04.342Z,12.20
2022-12-19T12:35:46.393Z,12.30
2022-12-19T12:40:44.842Z,12.30
2022-12-19T12:43:12.179Z,12.30
2022-12-19T12:45:42.347Z,12.30
2022-12-19T12:48:40.408Z,12.30
2022-12-19T12:51:08.394Z,12.20
2022-12-19T12:53:39.972Z,12.30
2022-12-19T12:56:10.906Z,12.30
2022-12-19T12:59:02.838Z,12.40
2022-12-19T13:01:30.318Z,12.30
2022-12-19T13:04:02.943Z,12.40
2022-12-19T13:06:35.220Z,12.40
2022-12-19T13:09:08.484Z,12.40
2022-12-19T13:11:58.544Z,12.40
2022-12-19T13:14:35.422Z,12.40
2022-12-19T13:17:07.227Z,12.40
2022-12-19T13:19:36.650Z,12.40
2022-12-19T13:22:03.971Z,12.40
2022-12-19T13:24:51.331Z,12.50
2022-12-19T13:27:18.635Z,12.50
2022-12-19T13:30:01.462Z,12.50
2022-12-19T13:32:41.055Z,12.50
2022-12-19T13:37:58.774Z,12.50
2022-12-19T13:40:00.347Z,12.50
2022-12-19T13:41:30.360Z,12.50
2022-12-19T13:44:00.287Z,12.50
2022-12-19T13:46:44.466Z,12.50
2022-12-19T13:49:32.956Z,12.50
2022-12-19T13:52:03.470Z,12.60
2022-12-19T13:54:47.670Z,12.50
2022-12-19T13:57:30.434Z,12.50
2022-12-19T14:00:02.053Z,12.50
2022-12-19T14:02:44.057Z,12.50
2022-12-19T14:06:16.328Z,12.50
2022-12-19T14:08:25.399Z,12.50
2022-12-19T14:11:34.838Z,12.50
2022-12-19T14:14:19.160Z,12.60
2022-12-19T14:16:49.576Z,12.60
2022-12-19T14:19:27.181Z,12.60
2022-12-19T14:22:11.645Z,12.60
2022-12-19T14:24:52.860Z,12.60
2022-12-19T14:28:23.443Z,12.70
2022-12-19T14:30:27.558Z,12.70
2022-12-19T14:33:40.930Z,12.70
2022-12-19T14:36:11.520Z,12.70
2022-12-19T14:39:23.329Z,12.70
2022-12-19T14:42:02.837Z,12.70
2022-12-19T14:52:25.644Z,12.80
2022-12-19T14:54:00.766Z,12.70
2022-12-19T14:54:06.042Z,12.80
2022-12-19T14:54:40.049Z,12.70
2022-12-19T14:56:54.383Z,12.70
2022-12-19T14:59:06.226Z,12.70
2022-12-19T15:01:35.305Z,12.70
2022-12-19T15:04:52.415Z,12.80
2022-12-19T15:07:24.437Z,12.80
2022-12-19T15:10:58.510Z,12.80
2022-12-19T15:14:54.464Z,12.80
2022-12-19T15:16:03.080Z,12.80
2022-12-19T15:18:33.547Z,12.80
2022-12-19T15:21:04.742Z,12.80
2022-12-19T15:23:32.465Z,12.80
2022-12-19T15:26:07.875Z,12.80
2022-12-19T15:28:51.166Z,12.90
2022-12-19T15:31:39.276Z,12.80
2022-12-19T15:34:36.844Z,12.80
2022-12-19T15:37:05.715Z,12.80
2022-12-19T15:39:33.035Z,12.80
2022-12-19T15:42:01.502Z,12.70
2022-12-19T15:44:41.102Z,12.70
2022-12-19T15:47:32.763Z,12.70
2022-12-19T15:50:03.945Z,12.70
2022-12-19T15:52:31.343Z,12.70
2022-12-19T15:54:58.683Z,12.80
2022-12-19T15:57:42.806Z,12.80
2022-12-19T16:00:19.593Z,12.80
2022-12-19T16:05:35.582Z,12.80
2022-12-19T16:08:03.255Z,12.80
2022-12-19T16:10:30.723Z,12.80
2022-12-19T16:12:58.549Z,12.80
2022-12-19T16:15:34.243Z,12.70
2022-12-19T16:18:03.855Z,12.80
2022-12-19T16:20:36.007Z,12.80
2022-12-19T16:23:03.855Z,12.80
2022-12-19T16:25:38.945Z,12.80
2022-12-19T16:28:07.828Z,12.70
2022-12-19T16:30:35.681Z,12.70
2022-12-19T16:33:03.111Z,12.70
2022-12-19T16:38:18.829Z,12.80
2022-12-19T16:40:52.977Z,12.80
2022-12-19T16:43:31.180Z,12.80
2022-12-19T16:46:01.747Z,12.90
2022-12-19T16:48:30.385Z,12.90
2022-12-19T16:50:58.994Z,12.90
2022-12-19T16:53:26.576Z,12.90
2022-12-19T16:55:55.377Z,12.90
2022-12-19T16:58:27.362Z,13.00
2022-12-19T17:00:55.884Z,13.00
2022-12-19T17:03:37.378Z,12.90
2022-12-19T17:06:05.111Z,12.90
2022-12-19T17:08:32.859Z,12.90
2022-12-19T17:11:00.374Z,12.90
2022-12-19T17:13:27.917Z,12.90
2022-12-19T17:15:57.239Z,13.00
2022-12-19T17:18:34.825Z,12.90
2022-12-19T17:21:02.617Z,12.90
2022-12-19T17:23:32.633Z,13.00
2022-12-19T17:26:01.049Z,13.00
2022-12-19T17:28:29.430Z,13.00
2022-12-19T17:30:59.931Z,13.00
2022-12-19T17:33:39.568Z,13.00
2022-12-19T17:36:07.772Z,13.00
2022-12-19T17:38:35.547Z,13.00
2022-12-19T17:41:03.449Z,13.00
2022-12-19T17:43:30.854Z,13.00
2022-12-19T17:46:05.161Z,13.00
2022-12-19T17:48:33.872Z,13.00
2022-12-19T17:51:01.280Z,13.00
2022-12-19T17:53:28.621Z,13.00
2022-12-19T17:55:55.940Z,13.00
2022-12-19T17:58:23.342Z,13.10
2022-12-19T18:00:52.118Z,13.10
2022-12-19T18:03:26.456Z,13.00
2022-12-19T18:05:55.588Z,12.90
2022-12-19T18:08:30.371Z,12.90
2022-12-19T18:11:00.576Z,12.90
2022-12-19T18:13:30.070Z,12.90
2022-12-19T18:16:02.084Z,13.00
2022-12-19T18:18:35.509Z,12.90
2022-12-19T18:21:03.928Z,12.80
2022-12-19T18:23:31.433Z,12.80
2022-12-19T18:26:01.867Z,12.80
2022-12-19T18:28:30.527Z,12.90
2022-12-19T18:31:06.118Z,12.90
2022-12-19T18:33:38.889Z,13.00
2022-12-19T18:36:08.191Z,13.00
2022-12-19T18:38:35.530Z,12.90
2022-12-19T18:41:03.139Z,12.90
2022-12-19T18:43:31.205Z,12.90
2022-12-19T18:45:58.668Z,12.90
2022-12-19T18:48:36.897Z,12.90
2022-12-19T18:51:05.537Z,12.80
2022-12-19T18:53:35.540Z,12.90
2022-12-19T18:56:05.587Z,12.90
2022-12-19T18:58:33.889Z,12.90
2022-12-19T19:01:02.929Z,13.00
2022-12-19T19:03:38.981Z,13.00
2022-12-19T19:06:20.069Z,13.00
2022-12-19T19:08:48.185Z,12.90
2022-12-19T19:11:15.922Z,13.00
2022-12-19T19:13:43.324Z,13.00
2022-12-19T19:16:20.584Z,13.00
2022-12-19T19:18:55.299Z,13.00
2022-12-19T19:21:29.788Z,13.00
2022-12-19T19:24:13.321Z,13.00
2022-12-19T19:26:40.939Z,13.00
2022-12-19T19:29:08.335Z,13.00
2022-12-19T19:31:38.898Z,13.10
2022-12-19T19:34:14.077Z,13.10
2022-12-19T19:36:45.444Z,13.00
2022-12-19T19:39:14.057Z,13.00
2022-12-19T19:41:41.554Z,13.00
2022-12-19T19:44:09.020Z,13.00
2022-12-19T19:46:37.501Z,12.90
2022-12-19T19:49:05.087Z,12.90
2022-12-19T19:51:32.681Z,12.90
2022-12-19T19:54:00.174Z,12.90
2022-12-19T19:56:27.681Z,12.90
2022-12-19T19:58:57.627Z,12.80
2022-12-19T20:01:25.192Z,12.80
2022-12-19T20:03:52.739Z,12.80
2022-12-19T20:06:20.364Z,12.80
2022-12-19T20:08:47.951Z,12.80
2022-12-19T20:11:15.683Z,12.90
2022-12-19T20:13:44.132Z,12.90
2022-12-19T20:16:15.755Z,12.90
2022-12-19T20:18:48.167Z,12.90
2022-12-19T20:21:15.619Z,12.90
2022-12-19T20:23:44.015Z,12.80
2022-12-19T20:26:15.579Z,12.80
2022-12-19T20:28:49.050Z,12.80
2022-12-19T20:31:22.558Z,12.80
2022-12-19T20:33:50.599Z,12.80
2022-12-19T20:36:18.212Z,12.80
2022-12-19T20:38:46.774Z,12.90
2022-12-19T20:41:14.642Z,12.90
2022-12-19T20:43:42.841Z,13.00
2022-12-19T20:46:13.387Z,13.00
2022-12-19T20:48:41.969Z,13.00
2022-12-19T20:51:09.962Z,13.00
2022-12-19T20:53:38.352Z,13.10
2022-12-19T20:56:07.197Z,13.10
2022-12-19T20:58:36.347Z,13.10
2022-12-19T21:01:15.813Z,13.10
2022-12-19T21:03:45.100Z,13.00
2022-12-19T21:06:15.209Z,13.10
2022-12-19T21:08:43.223Z,13.10
2022-12-19T21:11:11.661Z,13.10
2022-12-19T21:13:39.770Z,13.10
2022-12-19T21:16:11.244Z,13.20
2022-12-19T21:18:40.758Z,13.20
2022-12-19T21:21:10.759Z,13.20
2022-12-19T21:23:38.161Z,13.30
2022-12-19T21:26:05.879Z,13.30
2022-12-19T21:28:33.555Z,13.40
2022-12-19T21:31:04.522Z,13.40
2022-12-19T21:33:32.259Z,13.30
2022-12-19T21:36:06.785Z,13.30
2022-12-19T21:38:34.365Z,13.30
2022-12-19T21:41:06.456Z,13.40
2022-12-19T21:43:34.899Z,13.40
2022-12-19T21:46:11.344Z,13.30
2022-12-19T21:48:41.036Z,13.30
2022-12-19T21:51:10.016Z,13.20
2022-12-19T21:53:38.655Z,13.20
2022-12-19T21:56:24.392Z,13.10
2022-12-19T21:58:55.502Z,13.10
2022-12-19T22:01:23.445Z,13.10
2022-12-19T22:03:52.494Z,13.10
2022-12-19T22:06:27.907Z,13.20
2022-12-19T22:08:56.694Z,13.10
2022-12-19T22:11:24.914Z,13.20
2022-12-19T22:13:53.209Z,13.10
2022-12-19T22:16:20.681Z,13.10
2022-12-19T22:18:48.198Z,13.20
2022-12-19T22:21:15.955Z,13.20
2022-12-19T22:23:43.294Z,13.20
2022-12-19T22:26:16.213Z,13.20
2022-12-19T22:28:45.989Z,13.20
2022-12-19T22:31:27.829Z,13.20
2022-12-19T22:34:00.591Z,13.20
2022-12-19T22:36:29.540Z,13.20
2022-12-19T22:38:58.320Z,13.20
2022-12-19T22:41:26.164Z,13.20
2022-12-19T22:43:54.258Z,13.20
2022-12-19T22:46:28.361Z,13.20
2022-12-19T22:48:59.078Z,13.20
2022-12-19T22:51:27.390Z,13.20
2022-12-19T22:53:55.501Z,13.20
2022-12-19T22:56:25.946Z,13.20
2022-12-19T22:58:54.980Z,13.30
2022-12-19T23:01:28.554Z,13.30
2022-12-19T23:03:59.927Z,13.30
2022-12-19T23:06:29.560Z,13.30
2022-12-19T23:08:57.710Z,13.30
2022-12-19T23:11:32.007Z,13.30
2022-12-19T23:14:01.287Z,13.30
2022-12-19T23:16:28.996Z,13.30
2022-12-19T23:18:56.459Z,13.30
2022-12-19T23:21:25.166Z,13.30
2022-12-19T23:23:54.264Z,13.40
2022-12-19T23:26:30.324Z,13.40
2022-12-19T23:29:01.144Z,13.30
2022-12-19T23:31:29.589Z,13.30
2022-12-19T23:33:57.753Z,13.30
2022-12-19T23:37:08.919Z,13.30
2022-12-19T23:39:13.969Z,13.30
2022-12-19T23:41:41.483Z,13.30
2022-12-19T23:44:10.086Z,13.30
2022-12-19T23:46:38.023Z,13.30
2022-12-19T23:49:05.771Z,13.30
2022-12-19T23:51:33.157Z,13.30
2022-12-19T23:54:00.471Z,13.30
2022-12-19T23:56:31.672Z,13.30
2022-12-19T23:58:59.393Z,13.30
